Decoded Metar for LFRH (LORIENT in FRANCE) (IATA:LRT) | Meteo·Mobile Aviation Weather
aviador You're here:

LFRH Decoded Metar

LORIENT in FRANCE
Report Time2019-07-22 15:30:00
UTC Time2019-07-22 15:57:44
Flight Rules vfr VFR
Wind250° at 08 kt
W.Decomp.*RWY 25: 8.0 kt HW 0.3 kt RCW
RWY 20: 4.9 kt HW 6.3 kt RCW
Visibility9999 m
Phenomena:N/A
Clouds:N/A
Expected CloudBase > 3,200 ft AGL from Temp-Dew spread
CeilingNone
Temp24°C (ISA +9)
Dew Point16°C (61% RH)
AAT23.1°C
QNH1021 hPa
Density Alt1,194 ft
Elevation144 ft
Report Wrong Elevation
Raw Report
LFRH 221530Z AUTO 25008KT CAVOK 24/16 Q1021 NOSIG=

Extra information for LFRH:More info

Metar Taf Metar & Taf Last 4 Metars F.Rules Stats Wind Profile Meteogram Temp Stats Airport Information Weather charts Add Link Nearby VenuesMetar ALERT Operation Metar Decoded Social comments